Time;durP1;ratioP1;P1;durP2;ratioP2;P2;SDS_P1;SDS_P2;PMS_P1;PMS_P2;Temp;Humidity;BMP_temperature;BMP_pressure;BME280_temperature;BME280_humidity;BME280_pressure;Samples;Min_cycle;Max_cycle;Signal;HPM_P1;HPM_P2
2022/07/25 00:02:16;;;;;;;4.93;3.20;;;;;;;29.60;39.12;100845.19;4981752;28;20399;-67
2022/07/25 00:04:42;;;;;;;4.57;3.40;;;;;;;29.56;39.15;100844.03;5001660;28;20029;-66
2022/07/25 00:07:07;;;;;;;5.68;3.28;;;;;;;29.55;39.00;100839.59;5033849;28;20475;-66
2022/07/25 00:09:33;;;;;;;5.18;3.75;;;;;;;29.49;39.14;100833.16;5033777;28;20036;-66
2022/07/25 00:11:58;;;;;;;5.03;3.70;;;;;;;29.45;39.15;100834.78;5033816;28;20028;-66
2022/07/25 00:14:24;;;;;;;7.38;4.20;;;;;;;29.39;39.40;100833.88;5017219;28;20423;-67
2022/07/25 00:16:49;;;;;;;10.35;3.28;;;;;;;29.28;39.42;100825.66;5017254;28;20068;-66
2022/07/25 00:19:15;;;;;;;7.15;3.50;;;;;;;29.27;39.40;100835.03;5033652;28;20487;-67
2022/07/25 00:21:40;;;;;;;12.68;3.80;;;;;;;29.21;40.09;100838.75;5033715;28;20029;-67
2022/07/25 00:24:06;;;;;;;5.82;3.47;;;;;;;29.16;39.36;100831.25;5033651;28;20120;-67
2022/07/25 00:26:31;;;;;;;7.03;4.20;;;;;;;29.11;39.40;100830.31;5033698;28;20491;-67
2022/07/25 00:28:56;;;;;;;5.15;3.03;;;;;;;29.03;39.87;100816.94;5033683;28;20072;-67
2022/07/25 00:31:22;;;;;;;6.50;3.65;;;;;;;28.99;39.49;100816.59;5034673;28;20076;-67
2022/07/25 00:33:47;;;;;;;6.53;3.70;;;;;;;28.95;40.56;100815.41;5016877;28;20116;-67
2022/07/25 00:36:13;;;;;;;8.20;3.70;;;;;;;28.89;40.19;100810.94;5033162;28;20033;-67
2022/07/25 00:38:38;;;;;;;5.80;3.70;;;;;;;28.85;40.32;100813.34;5034476;28;20104;-67
2022/07/25 00:41:04;;;;;;;7.70;3.58;;;;;;;28.78;40.72;100820.91;5034496;28;20060;-67
2022/07/25 00:43:29;;;;;;;7.03;4.22;;;;;;;28.76;39.54;100811.22;5016834;28;20502;-66
2022/07/25 00:45:56;;;;;;;5.15;3.60;;;;;;;28.71;40.72;100808.38;5034492;28;20026;-67
2022/07/25 00:48:21;;;;;;;7.28;3.78;;;;;;;28.66;40.52;100802.78;5034305;28;20037;-67
2022/07/25 00:50:46;;;;;;;8.80;3.30;;;;;;;28.61;40.00;100797.16;5034439;28;20112;-67
2022/07/25 00:53:12;;;;;;;5.32;3.55;;;;;;;28.57;40.14;100793.22;5016728;28;20080;-67
2022/07/25 00:55:37;;;;;;;5.40;3.30;;;;;;;28.57;40.31;100790.44;5032964;28;20474;-67
2022/07/25 00:58:03;;;;;;;7.57;4.28;;;;;;;28.53;39.96;100792.03;5034126;28;20030;-67
2022/07/25 01:00:28;;;;;;;5.57;3.28;;;;;;;28.54;40.91;100796.47;5016518;28;20025;-68
2022/07/25 01:02:54;;;;;;;9.18;3.80;;;;;;;28.53;40.48;100794.81;5016041;28;20057;-67
2022/07/25 01:05:19;;;;;;;5.90;3.20;;;;;;;28.50;40.79;100784.28;5034004;28;20053;-67
2022/07/25 01:07:45;;;;;;;7.10;3.67;;;;;;;28.47;40.74;100787.53;5016206;28;20155;-67
2022/07/25 01:10:10;;;;;;;7.20;4.20;;;;;;;28.44;41.04;100779.75;5032725;28;20021;-68
2022/07/25 01:12:50;;;;;;;8.90;3.70;;;;;;;28.42;40.50;100776.41;5032891;28;20029;-67
2022/07/25 01:15:20;;;;;;;7.72;4.60;;;;;;;28.39;41.23;100776.91;5032705;28;20463;-67
2022/07/25 01:17:46;;;;;;;8.98;3.85;;;;;;;28.37;40.59;100768.03;5032553;28;20013;-67
2022/07/25 01:20:18;;;;;;;10.10;3.55;;;;;;;28.34;41.19;100769.34;5032574;28;20494;-67
2022/07/25 01:22:44;;;;;;;5.97;3.60;;;;;;;28.33;40.67;100764.94;5033686;28;20061;-67
2022/07/25 01:25:11;;;;;;;7.32;3.85;;;;;;;28.31;40.30;100759.66;5032320;28;20029;-68
2022/07/25 01:27:36;;;;;;;9.50;3.80;;;;;;;28.29;41.40;100761.00;5032520;28;20025;-67
2022/07/25 01:30:04;;;;;;;8.48;3.95;;;;;;;28.28;41.14;100759.34;5015864;28;20036;-67
2022/07/25 01:32:29;;;;;;;8.02;4.03;;;;;;;28.25;41.04;100755.13;5032014;28;20045;-67
2022/07/25 01:34:55;;;;;;;7.65;4.15;;;;;;;28.24;41.19;100763.66;5015911;28;20036;-67
2022/07/25 01:37:20;;;;;;;9.57;4.03;;;;;;;28.20;41.20;100755.03;5032282;28;20034;-67
2022/07/25 01:39:45;;;;;;;6.90;3.72;;;;;;;28.19;41.12;100756.16;5000219;28;20029;-66
2022/07/25 01:42:11;;;;;;;7.53;4.28;;;;;;;28.16;41.02;100751.13;4999377;28;20505;-67
2022/07/25 01:44:36;;;;;;;5.15;3.25;;;;;;;28.13;41.02;100750.78;5015826;28;20074;-67
2022/07/25 01:47:01;;;;;;;6.63;3.53;;;;;;;28.10;41.27;100751.25;5032294;28;20024;-67
2022/07/25 01:49:27;;;;;;;8.70;3.83;;;;;;;28.05;40.99;100742.91;5032004;28;20037;-67
2022/07/25 01:51:53;;;;;;;7.43;3.75;;;;;;;28.02;40.81;100738.69;5015678;28;20034;-66
2022/07/25 01:54:18;;;;;;;5.15;3.40;;;;;;;28.02;41.47;100749.72;5032209;28;20506;-67
2022/07/25 01:56:43;;;;;;;13.93;4.68;;;;;;;28.00;40.95;100746.34;5033355;28;20029;-67
2022/07/25 01:59:09;;;;;;;6.72;4.20;;;;;;;27.98;40.83;100737.50;5015701;28;20075;-67
2022/07/25 02:01:35;;;;;;;6.10;3.38;;;;;;;27.94;41.20;100741.84;5015603;28;20026;-67
2022/07/25 02:04:01;;;;;;;7.47;4.10;;;;;;;27.94;41.48;100741.84;5033313;28;20041;-67
2022/07/25 02:06:26;;;;;;;8.35;3.40;;;;;;;27.92;41.29;100734.91;5015819;28;20475;-67
2022/07/25 02:08:51;;;;;;;8.32;3.97;;;;;;;27.89;41.18;100732.66;5015679;28;20132;-66
2022/07/25 02:11:17;;;;;;;9.73;3.95;;;;;;;27.85;41.08;100724.03;5015427;28;20099;-66
2022/07/25 02:13:43;;;;;;;5.35;3.53;;;;;;;27.81;41.16;100725.59;5015768;28;20041;-66
2022/07/25 02:16:08;;;;;;;8.15;3.92;;;;;;;27.79;41.53;100722.25;5019816;28;20113;-67
2022/07/25 02:18:34;;;;;;;5.18;3.38;;;;;;;27.74;41.96;100720.25;5019477;28;20124;-67
2022/07/25 02:21:00;;;;;;;5.45;3.33;;;;;;;27.70;41.39;100718.19;5035886;28;20513;-67
2022/07/25 02:23:25;;;;;;;5.82;3.65;;;;;;;27.64;41.40;100710.91;5035847;28;20030;-67
2022/07/25 02:25:50;;;;;;;8.18;3.35;;;;;;;27.64;41.48;100709.00;5019428;28;20040;-66
2022/07/25 02:28:16;;;;;;;5.47;3.70;;;;;;;27.63;41.79;100710.09;5035671;28;20026;-66
2022/07/25 02:30:41;;;;;;;5.60;3.75;;;;;;;27.59;41.94;100703.41;5035284;28;20030;-66
2022/07/25 02:33:07;;;;;;;7.25;3.67;;;;;;;27.61;41.19;100703.16;5035765;28;20391;-66
2022/07/25 02:35:32;;;;;;;5.28;3.45;;;;;;;27.59;41.72;100700.63;5035552;28;20087;-67
2022/07/25 02:37:57;;;;;;;5.05;3.17;;;;;;;27.59;41.68;100699.78;5019018;28;20459;-67
2022/07/25 02:40:23;;;;;;;7.10;3.70;;;;;;;27.61;41.34;100694.91;5019158;28;20040;-67
2022/07/25 02:42:48;;;;;;;6.60;3.67;;;;;;;27.60;41.69;100685.81;5035413;28;20037;-66
2022/07/25 02:45:14;;;;;;;6.20;3.47;;;;;;;27.58;41.53;100682.44;5015523;28;20121;-67
2022/07/25 02:47:39;;;;;;;5.50;3.42;;;;;;;27.57;41.52;100686.28;4999156;28;20116;-67
2022/07/25 02:50:05;;;;;;;5.65;3.60;;;;;;;27.53;41.68;100678.75;5015377;28;20037;-66
2022/07/25 02:52:31;;;;;;;7.53;3.65;;;;;;;27.52;41.98;100679.84;4998993;28;20076;-67
2022/07/25 02:54:56;;;;;;;7.72;3.88;;;;;;;27.47;41.84;100666.81;5031929;28;20030;-67
2022/07/25 02:57:21;;;;;;;9.23;3.33;;;;;;;27.42;41.99;100661.19;5016592;28;20037;-67
2022/07/25 02:59:47;;;;;;;5.85;3.67;;;;;;;27.43;42.10;100667.53;4999205;28;20034;-67
2022/07/25 03:02:12;;;;;;;5.45;3.63;;;;;;;27.38;41.69;100670.16;4998978;28;20034;-66
2022/07/25 03:04:37;;;;;;;7.75;3.72;;;;;;;27.34;41.85;100663.47;5015259;28;20033;-66
2022/07/25 03:07:03;;;;;;;6.25;3.58;;;;;;;27.33;41.58;100670.06;5015675;28;20084;-67
2022/07/25 03:09:29;;;;;;;6.30;3.92;;;;;;;27.29;42.09;100661.44;5001710;28;20065;-67
2022/07/25 03:11:54;;;;;;;5.03;3.33;;;;;;;27.28;41.58;100658.91;5016328;28;20034;-66
2022/07/25 03:14:20;;;;;;;7.63;3.80;;;;;;;27.26;41.54;100656.44;5015058;28;20116;-66
2022/07/25 03:16:45;;;;;;;7.20;3.83;;;;;;;27.23;41.62;100665.16;5015614;28;20026;-67
2022/07/25 03:19:11;;;;;;;7.28;3.97;;;;;;;27.18;41.62;100656.81;5014880;28;20041;-67
2022/07/25 03:21:37;;;;;;;5.70;3.88;;;;;;;27.17;42.11;100657.88;5016197;28;20080;-67
2022/07/25 03:24:02;;;;;;;7.28;3.13;;;;;;;27.15;41.73;100655.38;5031474;28;20034;-67
2022/07/25 03:26:28;;;;;;;8.27;3.20;;;;;;;27.13;41.96;100662.19;5014874;28;20105;-67
2022/07/25 03:28:53;;;;;;;5.05;3.60;;;;;;;27.12;42.42;100650.34;4998483;28;20109;-67
2022/07/25 03:31:19;;;;;;;4.95;3.45;;;;;;;27.09;42.26;100647.25;5014695;28;20057;-66
2022/07/25 03:33:44;;;;;;;7.28;3.65;;;;;;;27.06;41.88;100645.81;5014966;28;20021;-67
2022/07/25 03:36:10;;;;;;;7.85;3.47;;;;;;;27.07;41.63;100647.50;5012209;28;20125;-67
2022/07/25 03:38:36;;;;;;;7.25;3.65;;;;;;;27.03;41.61;100640.78;5014665;28;20480;-67
2022/07/25 03:41:01;;;;;;;5.30;3.47;;;;;;;27.06;42.26;100645.81;4998262;28;20484;-68
2022/07/25 03:43:26;;;;;;;5.72;3.25;;;;;;;27.05;42.30;100638.63;5015671;28;20030;-67
2022/07/25 03:45:52;;;;;;;7.38;3.40;;;;;;;27.06;42.07;100645.81;4998139;28;20060;-66
2022/07/25 03:48:17;;;;;;;4.60;2.88;;;;;;;27.06;42.40;100645.81;5014581;28;20069;-67
2022/07/25 03:50:43;;;;;;;5.18;3.63;;;;;;;27.07;42.06;100636.50;5015525;28;20030;-67
2022/07/25 03:53:08;;;;;;;6.75;4.00;;;;;;;27.05;41.90;100629.56;5014399;28;20064;-67
2022/07/25 03:55:33;;;;;;;9.68;3.65;;;;;;;27.03;41.98;100624.28;5014227;28;20488;-66
2022/07/25 03:57:59;;;;;;;8.40;3.42;;;;;;;27.03;42.40;100632.53;4997937;28;20061;-67
2022/07/25 04:00:24;;;;;;;6.97;3.58;;;;;;;27.03;42.57;100629.78;5027933;28;20048;-67
2022/07/25 04:02:49;;;;;;;8.38;3.35;;;;;;;27.02;42.35;100632.81;5034096;28;20438;-67
2022/07/25 04:05:15;;;;;;;6.28;3.22;;;;;;;27.03;42.14;100627.03;5017525;28;20115;-67
2022/07/25 04:07:40;;;;;;;6.00;3.47;;;;;;;27.06;41.86;100623.81;5033888;28;20017;-67
2022/07/25 04:10:07;;;;;;;6.03;3.35;;;;;;;27.05;42.10;100624.88;5033907;28;20029;-67
2022/07/25 04:12:32;;;;;;;6.38;3.33;;;;;;;27.04;42.00;100614.13;5033884;28;20037;-67
2022/07/25 04:14:57;;;;;;;7.28;3.40;;;;;;;27.09;42.66;100626.09;5017258;28;20037;-67
2022/07/25 04:17:23;;;;;;;4.28;3.40;;;;;;;27.11;42.65;100610.16;5017257;28;20033;-67
2022/07/25 04:19:48;;;;;;;4.30;3.28;;;;;;;27.13;42.31;100618.19;5017210;28;20475;-67
2022/07/25 04:22:14;;;;;;;5.55;3.53;;;;;;;27.12;42.25;100600.84;5017072;28;20056;-67
2022/07/25 04:24:39;;;;;;;15.23;4.10;;;;;;;27.13;42.44;100602.53;5017188;28;20083;-68
2022/07/25 04:27:04;;;;;;;10.35;4.05;;;;;;;27.14;42.54;100601.44;5033593;28;20079;-67
2022/07/25 04:29:30;;;;;;;6.38;3.45;;;;;;;27.17;42.60;100608.34;5034587;28;20395;-67
2022/07/25 04:31:56;;;;;;;6.40;3.70;;;;;;;27.18;42.36;100602.63;5034549;28;20136;-68
2022/07/25 04:34:22;;;;;;;6.05;3.05;;;;;;;27.23;42.57;100606.56;5000833;28;20030;-67
2022/07/25 04:36:47;;;;;;;5.10;3.30;;;;;;;27.25;42.82;100605.22;5032783;28;20030;-67
2022/07/25 04:39:12;;;;;;;5.60;3.42;;;;;;;27.28;42.21;100603.91;5034518;28;20033;-67
2022/07/25 04:41:38;;;;;;;6.88;3.45;;;;;;;27.31;42.27;100592.41;5016706;28;20124;-66
2022/07/25 04:44:06;;;;;;;6.75;3.42;;;;;;;27.35;42.69;100588.09;5016874;28;20029;-67
2022/07/25 04:46:31;;;;;;;6.25;3.78;;;;;;;27.44;42.78;100592.16;5017066;28;20024;-67
2022/07/25 04:48:56;;;;;;;4.68;2.95;;;;;;;27.46;42.10;100581.75;5034284;28;20033;-67
2022/07/25 04:51:22;;;;;;;9.25;3.70;;;;;;;27.51;42.23;100582.69;5032940;28;20505;-67
2022/07/25 04:53:47;;;;;;;7.03;3.70;;;;;;;27.56;42.31;100582.78;5016323;28;20531;-67
2022/07/25 04:56:12;;;;;;;5.55;3.33;;;;;;;27.63;42.25;100579.88;5034150;28;20032;-67
2022/07/25 04:58:38;;;;;;;5.97;3.17;;;;;;;27.67;42.55;100570.03;5016326;28;20040;-67
2022/07/25 05:01:04;;;;;;;6.03;3.35;;;;;;;27.74;42.54;100579.81;5033027;28;20079;-67
2022/07/25 05:03:29;;;;;;;5.95;3.75;;;;;;;27.77;42.61;100574.91;5016380;28;20074;-67
2022/07/25 05:05:54;;;;;;;5.70;3.42;;;;;;;27.83;42.82;100573.91;5000021;28;20025;-67
2022/07/25 05:08:20;;;;;;;7.35;4.05;;;;;;;27.87;42.58;100575.06;5016212;28;20041;-67
2022/07/25 05:10:45;;;;;;;6.70;3.88;;;;;;;27.94;42.21;100562.81;5016090;28;20025;-67
2022/07/25 05:13:10;;;;;;;7.00;4.10;;;;;;;28.03;42.71;100569.59;5032615;28;20035;-67
2022/07/25 05:15:36;;;;;;;9.40;3.80;;;;;;;28.08;42.72;100564.19;5032550;28;20147;-67
2022/07/25 05:18:01;;;;;;;6.80;4.00;;;;;;;28.17;42.74;100559.91;5033806;28;20026;-67
2022/07/25 05:20:27;;;;;;;5.53;3.65;;;;;;;28.24;42.34;100563.34;4999830;28;20411;-67
2022/07/25 05:22:52;;;;;;;6.97;3.35;;;;;;;28.38;43.04;100560.25;5000398;28;20056;-67
2022/07/25 05:25:18;;;;;;;4.30;3.20;;;;;;;28.47;42.38;100561.50;5016231;28;20124;-67
2022/07/25 05:27:44;;;;;;;6.35;3.83;;;;;;;28.61;41.62;100560.88;5016287;28;20025;-66
2022/07/25 05:30:11;;;;;;;6.85;3.60;;;;;;;28.76;42.06;100568.53;5016163;28;20499;-66
2022/07/25 05:32:38;;;;;;;6.25;3.13;;;;;;;28.91;41.41;100565.16;5032178;28;20522;-67
2022/07/25 05:35:05;;;;;;;4.30;3.08;;;;;;;29.10;41.54;100566.50;5032407;28;20030;-66
2022/07/25 05:37:30;;;;;;;5.55;2.92;;;;;;;29.29;40.46;100560.44;5031580;28;20021;-66
2022/07/25 05:39:55;;;;;;;6.68;3.05;;;;;;;29.53;40.93;100568.44;5032357;28;20033;-66
2022/07/25 05:42:21;;;;;;;7.15;3.17;;;;;;;29.67;40.91;100564.16;5033527;28;20037;-66
2022/07/25 05:44:46;;;;;;;9.50;3.47;;;;;;;29.78;40.11;100561.25;5015627;28;20056;-67
2022/07/25 05:47:12;;;;;;;5.10;3.03;;;;;;;29.92;39.60;100575.50;5032395;28;20066;-67
2022/07/25 05:49:37;;;;;;;5.25;3.20;;;;;;;30.02;39.94;100586.63;5031844;28;20120;-67
2022/07/25 05:52:03;;;;;;;6.53;3.17;;;;;;;30.12;39.55;100605.22;5032198;28;20030;-66
2022/07/25 05:54:29;;;;;;;8.90;3.10;;;;;;;30.17;39.88;100608.88;5015744;28;20132;-67
2022/07/25 05:56:54;;;;;;;7.38;3.63;;;;;;;30.22;39.58;100611.69;5033242;28;20520;-67
2022/07/25 05:59:19;;;;;;;4.60;3.33;;;;;;;30.23;39.25;100624.41;5015599;28;20057;-66
2022/07/25 06:01:45;;;;;;;5.65;3.40;;;;;;;30.28;39.85;100616.16;5033261;28;20075;-67
2022/07/25 06:04:10;;;;;;;6.25;3.22;;;;;;;30.32;39.39;100620.03;5032095;28;20053;-67
2022/07/25 06:06:35;;;;;;;6.25;3.55;;;;;;;30.44;39.29;100606.91;5031871;28;20109;-66
2022/07/25 06:09:01;;;;;;;4.43;3.35;;;;;;;30.55;39.30;100614.19;5031963;28;20036;-67
2022/07/25 06:11:27;;;;;;;5.05;3.08;;;;;;;30.65;38.57;100601.53;5031923;28;20037;-67
2022/07/25 06:13:53;;;;;;;5.20;3.45;;;;;;;30.73;38.97;100601.84;5031990;28;20029;-66
2022/07/25 06:16:18;;;;;;;4.03;2.90;;;;;;;30.84;38.41;100598.06;5033366;28;20033;-67
2022/07/25 06:18:44;;;;;;;4.70;3.22;;;;;;;30.93;38.14;100598.41;5015598;28;20072;-67
2022/07/25 06:21:09;;;;;;;4.00;3.60;;;;;;;31.04;37.91;100591.81;5031939;28;20079;-67
2022/07/25 06:23:35;;;;;;;4.07;3.42;;;;;;;31.13;38.08;100601.25;5032149;28;20040;-67
2022/07/25 06:26:00;;;;;;;5.15;3.28;;;;;;;31.21;37.99;100597.16;5033172;28;20032;-66
2022/07/25 06:28:25;;;;;;;6.03;3.50;;;;;;;31.26;37.96;100598.00;5032093;28;20542;-67
2022/07/25 06:30:51;;;;;;;4.85;3.08;;;;;;;31.29;37.95;100589.16;5032870;28;20387;-66
2022/07/25 06:33:16;;;;;;;7.05;3.45;;;;;;;31.33;37.79;100587.50;5032155;28;20026;-67
2022/07/25 06:35:41;;;;;;;5.03;3.38;;;;;;;31.43;37.48;100590.31;5015258;28;20122;-66
2022/07/25 06:38:07;;;;;;;5.90;3.35;;;;;;;31.48;37.40;100587.59;5033256;28;20029;-66
2022/07/25 06:40:32;;;;;;;4.38;3.13;;;;;;;31.55;37.17;100593.69;5031682;28;20057;-67
2022/07/25 06:42:58;;;;;;;4.40;3.53;;;;;;;31.60;37.31;100596.47;5032717;28;20030;-67
2022/07/25 06:45:23;;;;;;;3.72;2.92;;;;;;;31.62;37.05;100596.22;5031626;28;20464;-67
2022/07/25 06:47:48;;;;;;;4.78;2.88;;;;;;;31.64;36.94;100603.13;5013394;28;20088;-67
2022/07/25 06:50:17;;;;;;;4.88;3.08;;;;;;;31.63;37.10;100606.19;5026868;28;20057;-67
2022/07/25 06:52:42;;;;;;;5.97;3.10;;;;;;;31.63;37.05;100607.00;5022439;28;20040;-67
2022/07/25 06:55:09;;;;;;;5.30;3.38;;;;;;;31.64;36.91;100605.91;5022328;28;20399;-67
2022/07/25 06:57:34;;;;;;;4.00;2.65;;;;;;;31.64;37.02;100608.69;5018545;28;20018;-67
2022/07/25 07:00:00;;;;;;;4.07;3.33;;;;;;;31.72;37.12;100623.94;5003103;28;20032;-67
2022/07/25 07:02:26;;;;;;;4.63;3.13;;;;;;;31.79;36.90;100620.91;5027615;28;20025;-66
2022/07/25 07:04:51;;;;;;;4.57;3.20;;;;;;;31.80;36.59;100617.03;5035004;28;20127;-66
2022/07/25 07:07:17;;;;;;;4.53;3.17;;;;;;;31.78;36.69;100624.78;5035132;28;20021;-66
2022/07/25 07:09:42;;;;;;;3.85;2.80;;;;;;;31.77;36.82;100626.69;5035454;28;20032;-66
2022/07/25 07:12:08;;;;;;;3.05;2.42;;;;;;;31.75;36.08;100633.63;5034977;28;20030;-66
2022/07/25 07:14:36;;;;;;;4.40;2.83;;;;;;;31.74;36.66;100634.75;5034912;28;20438;-66
2022/07/25 07:17:02;;;;;;;5.38;2.92;;;;;;;31.71;36.49;100620.31;5035935;28;20021;-67
2022/07/25 07:19:27;;;;;;;5.97;2.50;;;;;;;31.73;36.12;100627.53;5002077;28;20485;-66
2022/07/25 07:21:52;;;;;;;4.40;2.38;;;;;;;31.74;36.45;100623.66;5000477;28;20037;-66
2022/07/25 07:24:18;;;;;;;13.00;2.47;;;;;;;31.71;36.13;100634.16;5014850;28;20092;-66
2022/07/25 07:26:43;;;;;;;5.15;3.10;;;;;;;31.76;36.38;100627.00;5015022;28;20084;-66
2022/07/25 07:29:09;;;;;;;6.63;2.10;;;;;;;31.78;36.00;100625.59;5023350;28;20467;-67
2022/07/25 07:31:34;;;;;;;6.07;2.30;;;;;;;31.80;35.76;100615.06;5022509;28;20104;-67
2022/07/25 07:34:00;;;;;;;3.50;2.20;;;;;;;31.82;35.81;100614.81;5006915;28;20036;-67
2022/07/25 07:36:25;;;;;;;7.80;2.47;;;;;;;31.83;35.39;100622.03;5016987;28;20034;-67
2022/07/25 07:38:51;;;;;;;4.78;2.28;;;;;;;31.82;35.54;100621.19;5014484;28;20022;-67
2022/07/25 07:41:17;;;;;;;5.22;2.00;;;;;;;31.83;35.70;100633.13;4998424;28;20472;-67
2022/07/25 07:43:42;;;;;;;2.38;1.95;;;;;;;31.84;36.09;100646.69;5008239;28;20061;-67
2022/07/25 07:46:08;;;;;;;5.53;2.70;;;;;;;31.85;35.13;100650.28;5015762;28;20447;-67
2022/07/25 07:48:33;;;;;;;2.60;2.00;;;;;;;31.85;35.58;100653.06;4998095;28;20036;-67
2022/07/25 07:51:00;;;;;;;3.75;2.20;;;;;;;31.84;35.32;100651.38;5018786;28;20053;-67
2022/07/25 07:56:09;;;;;;;3.28;2.15;;;;;;;31.91;35.48;100646.44;5034318;28;20040;-66
2022/07/25 07:58:34;;;;;;;5.60;2.00;;;;;;;32.04;35.16;100645.94;5032999;28;20029;-66
2022/07/25 08:01:00;;;;;;;3.95;1.80;;;;;;;32.14;34.73;100641.22;5034336;28;20112;-67
2022/07/25 08:03:26;;;;;;;4.13;2.45;;;;;;;32.30;34.61;100642.06;5033051;28;20112;-67
2022/07/25 08:05:52;;;;;;;3.05;2.22;;;;;;;32.61;34.49;100640.97;5033157;28;20108;-67
2022/07/25 08:08:17;;;;;;;3.60;2.22;;;;;;;32.64;33.97;100634.84;5000188;28;20120;-67
2022/07/25 08:10:45;;;;;;;2.47;2.10;;;;;;;32.76;34.54;100640.94;5033095;28;20545;-67
2022/07/25 08:13:19;;;;;;;2.80;2.05;;;;;;;33.38;33.73;100648.03;5033189;28;20030;-66
2022/07/25 08:15:47;;;;;;;2.58;1.77;;;;;;;33.94;32.95;100632.75;5032691;28;20033;-67
2022/07/25 08:18:13;;;;;;;3.78;2.03;;;;;;;33.95;32.96;100634.38;5032874;28;20483;-67
2022/07/25 08:20:38;;;;;;;3.33;1.77;;;;;;;34.02;32.91;100641.56;5029560;28;20029;-67
2022/07/25 08:23:05;;;;;;;2.33;1.83;;;;;;;34.55;32.96;100640.63;5029547;28;20040;-66
2022/07/25 08:25:30;;;;;;;2.17;1.55;;;;;;;34.79;32.18;100640.69;5033873;28;20120;-66
2022/07/25 08:27:56;;;;;;;2.40;1.80;;;;;;;35.08;31.61;100635.97;5017045;28;20044;-66
2022/07/25 08:30:21;;;;;;;3.85;1.65;;;;;;;35.44;31.81;100645.53;5033364;28;20547;-66
2022/07/25 08:32:49;;;;;;;3.38;1.65;;;;;;;35.83;30.76;100644.47;5033341;28;20415;-66
2022/07/25 08:35:15;;;;;;;2.17;1.73;;;;;;;36.10;30.31;100650.22;5032346;28;20509;-67
2022/07/25 08:37:40;;;;;;;5.68;1.65;;;;;;;36.35;30.07;100654.59;5016914;28;20033;-66
2022/07/25 08:40:06;;;;;;;3.58;1.52;;;;;;;36.44;29.91;100647.16;5033302;28;20109;-66
2022/07/25 08:42:33;;;;;;;3.22;1.35;;;;;;;36.69;30.01;100650.38;5034685;28;20108;-66
2022/07/25 08:44:59;;;;;;;2.15;1.50;;;;;;;36.68;29.91;100636.72;5033054;28;20476;-66
2022/07/25 08:47:24;;;;;;;4.07;1.27;;;;;;;36.92;29.43;100650.50;5033119;28;20017;-66
2022/07/25 08:49:50;;;;;;;3.85;1.60;;;;;;;37.07;29.01;100644.66;5014732;28;20032;-66
2022/07/25 08:52:17;;;;;;;3.05;1.60;;;;;;;37.20;29.09;100646.63;5016602;28;20025;-67
2022/07/25 08:54:44;;;;;;;2.40;1.55;;;;;;;37.30;29.02;100646.41;5032936;28;20021;-66
2022/07/25 08:57:10;;;;;;;1.20;1.10;;;;;;;37.60;28.19;100644.97;5016293;28;20025;-66
2022/07/25 08:59:35;;;;;;;2.63;1.60;;;;;;;37.52;29.06;100646.56;5016694;28;20033;-66
2022/07/25 09:02:05;;;;;;;2.70;1.52;;;;;;;37.31;28.53;100645.28;5016273;28;20025;-66
2022/07/25 09:04:32;;;;;;;1.40;1.30;;;;;;;37.08;29.36;100652.72;5017077;28;20026;-67
2022/07/25 09:06:57;;;;;;;4.25;1.60;;;;;;;36.91;28.73;100646.09;5016238;28;20044;-66
2022/07/25 09:09:43;;;;;;;2.35;1.63;;;;;;;36.74;29.33;100664.25;5032887;28;20057;-66
2022/07/25 09:12:09;;;;;;;5.60;2.72;;;;;;;36.69;29.45;100666.28;5032248;28;20049;-66
2022/07/25 09:14:41;;;;;;;2.58;1.38;;;;;;;36.61;29.02;100670.63;5033824;28;20033;-65
2022/07/25 09:17:06;;;;;;;;;;;;;;;36.57;29.54;100674.34;5032942;28;20036;-66
2022/07/25 09:19:32;;;;;;;3.75;1.38;;;;;;;36.96;28.73;100673.91;5032572;28;19913;-66
2022/07/25 09:22:01;;;;;;;2.17;1.30;;;;;;;37.29;28.78;100681.94;5032720;28;20029;-66
2022/07/25 09:24:27;;;;;;;1.50;1.25;;;;;;;37.20;28.74;100672.63;5032463;28;20024;-66
2022/07/25 09:26:54;;;;;;;3.03;1.80;;;;;;;37.36;28.36;100689.91;5032667;28;20028;-66
2022/07/25 09:29:24;;;;;;;4.63;1.65;;;;;;;37.52;28.88;100682.06;5032483;28;20035;-66
2022/07/25 09:31:50;;;;;;;3.03;1.35;;;;;;;37.95;28.00;100683.38;5032233;28;20041;-66
2022/07/25 09:34:33;;;;;;;8.85;1.20;;;;;;;38.32;28.04;100685.88;5032260;28;20403;-66
2022/07/25 09:36:59;;;;;;;4.53;1.17;;;;;;;38.69;27.50;100681.88;5032286;28;20026;-66
2022/07/25 09:39:42;;;;;;;1.27;0.88;;;;;;;38.39;28.22;100683.44;5033543;28;20029;-66
2022/07/25 09:42:31;;;;;;;1.13;0.60;;;;;;;38.54;27.40;100689.81;5032145;28;20029;-66
2022/07/25 09:45:04;;;;;;;1.73;0.90;;;;;;;38.89;27.98;100697.34;5016069;28;20029;-66
2022/07/25 09:47:32;;;;;;;1.42;0.90;;;;;;;39.16;27.23;100691.53;5015757;28;20045;-66
2022/07/25 09:49:59;;;;;;;2.58;0.88;;;;;;;39.38;27.29;100685.88;5023290;28;20053;-66
2022/07/25 09:52:24;;;;;;;1.40;1.00;;;;;;;39.65;26.72;100687.63;4996064;28;20105;-66
2022/07/25 09:54:50;;;;;;;3.88;0.95;;;;;;;39.88;26.51;100685.53;4995973;28;20064;-66
2022/07/25 09:57:15;;;;;;;3.08;1.38;;;;;;;39.91;27.06;100676.47;5013620;28;20032;-66
2022/07/25 09:59:41;;;;;;;5.00;1.20;;;;;;;39.70;27.06;100684.66;5012439;28;20394;-66
2022/07/25 10:02:31;;;;;;;1.10;1.00;;;;;;;40.19;27.01;100672.22;5012472;28;20076;-67
2022/07/25 10:05:14;;;;;;;3.13;0.93;;;;;;;40.43;26.14;100672.53;5016811;28;20100;-66
2022/07/25 10:07:43;;;;;;;1.98;1.40;;;;;;;40.73;26.30;100683.91;5032094;28;20475;-66
2022/07/25 10:10:28;;;;;;;7.20;6.80;;;;;;;41.21;26.20;100679.63;5015606;28;20053;-66
2022/07/25 10:13:09;;;;;;;3.60;1.80;;;;;;;42.00;25.07;100675.25;5031968;28;20029;-66
2022/07/25 10:15:49;;;;;;;2.90;1.38;;;;;;;43.16;24.10;100681.63;5031966;28;20057;-66
2022/07/25 10:18:17;;;;;;;2.60;1.08;;;;;;;44.07;23.50;100671.69;5031928;28;20037;-66
2022/07/25 10:20:47;;;;;;;1.65;1.02;;;;;;;44.03;23.19;100677.22;5012193;28;20490;-66
2022/07/25 10:23:19;;;;;;;1.38;1.27;;;;;;;43.54;23.53;100682.13;5021442;28;20487;-67
2022/07/25 10:25:45;;;;;;;1.15;1.05;;;;;;;43.29;24.18;100678.47;5032836;28;20097;-66
2022/07/25 10:28:15;;;;;;;4.45;1.30;;;;;;;42.89;24.69;100678.25;5033073;28;20060;-67
2022/07/25 10:30:41;;;;;;;1.88;1.00;;;;;;;42.66;24.33;100679.84;5015388;28;20094;-66
2022/07/25 10:33:16;;;;;;;1.73;0.80;;;;;;;42.07;24.78;100675.53;5015427;28;20519;-66
2022/07/25 10:35:42;;;;;;;1.25;1.15;;;;;;;41.98;24.91;100674.78;5034759;28;20041;-67
2022/07/25 10:38:09;;;;;;;8.38;1.73;;;;;;;42.29;24.79;100675.22;5035725;28;20029;-66
2022/07/25 10:40:34;;;;;;;3.17;1.17;;;;;;;42.63;24.42;100680.56;5035294;28;20087;-66
2022/07/25 10:43:06;;;;;;;2.05;1.13;;;;;;;42.51;24.62;100686.09;5035498;28;20033;-66
2022/07/25 10:45:40;;;;;;;2.13;0.88;;;;;;;42.44;24.56;100694.28;5035427;28;20031;-66
2022/07/25 10:48:07;;;;;;;2.25;0.95;;;;;;;42.83;24.46;100696.56;5035345;28;20029;-66
2022/07/25 10:50:33;;;;;;;2.30;1.00;;;;;;;42.99;24.16;100695.94;5035388;28;20438;-66
2022/07/25 10:53:06;;;;;;;1.98;1.70;;;;;;;43.30;23.61;100696.22;5036545;28;20083;-66
2022/07/25 10:55:35;;;;;;;1.48;1.27;;;;;;;43.46;23.80;100695.19;5020139;28;20021;-66
2022/07/25 10:58:03;;;;;;;1.90;1.50;;;;;;;43.78;23.43;100699.06;5035160;28;20029;-66
2022/07/25 11:00:29;;;;;;;3.58;1.83;;;;;;;44.01;23.40;100697.38;5036506;28;20053;-66
2022/07/25 11:02:56;;;;;;;2.90;1.67;;;;;;;44.25;23.22;100690.06;5036432;28;20061;-66
2022/07/25 11:05:21;;;;;;;2.40;1.02;;;;;;;44.13;23.32;100681.59;5036000;28;20052;-67
2022/07/25 11:07:51;;;;;;;1.92;1.08;;;;;;;44.17;23.11;100688.19;5036708;28;20029;-66
2022/07/25 11:10:24;;;;;;;3.30;1.73;;;;;;;44.23;23.42;100693.22;5031505;28;20037;-66
2022/07/25 11:12:50;;;;;;;2.85;1.30;;;;;;;44.59;23.18;100695.09;5022422;28;20061;-66
2022/07/25 11:15:15;;;;;;;4.15;1.52;;;;;;;44.86;22.77;100694.25;5032722;28;20120;-67
2022/07/25 11:17:49;;;;;;;1.38;0.70;;;;;;;44.00;23.54;100711.88;5018325;28;20029;-67
2022/07/25 11:20:16;;;;;;;1.92;1.05;;;;;;;44.02;23.40;100713.16;5034804;28;20060;-66
2022/07/25 11:22:41;;;;;;;3.67;1.08;;;;;;;43.83;23.65;100709.31;5010754;28;20490;-66
2022/07/25 11:25:13;;;;;;;1.45;0.75;;;;;;;43.60;23.45;100708.94;5024942;28;20064;-66